Time;durP1;ratioP1;P1;durP2;ratioP2;P2;SDS_P1;SDS_P2;PMS_P1;PMS_P2;Temp;Humidity;BMP_temperature;BMP_pressure;BME280_temperature;BME280_humidity;BME280_pressure;Samples;Min_cycle;Max_cycle;Signal;HPM_P1;HPM_P2
2023/02/06 00:01:33;;;;;;;38.88;4.18;;;;;;;;;;5071935;28;20511;-28
2023/02/06 00:04:00;;;;;;;41.17;4.43;;;;;;;;;;5070105;28;20132;-28
2023/02/06 00:06:27;;;;;;;47.38;4.05;;;;;;;;;;5034286;28;20108;-29
2023/02/06 00:08:54;;;;;;;36.30;3.83;;;;;;;;;;5052181;28;20025;-28
2023/02/06 00:11:21;;;;;;;34.08;3.67;;;;;;;;;;5053326;28;20039;-28
2023/02/06 00:13:48;;;;;;;32.72;3.58;;;;;;;;;;5034925;28;20390;-28
2023/02/06 00:16:20;;;;;;;30.92;3.22;;;;;;;;;;5055229;28;20443;-28
2023/02/06 00:18:46;;;;;;;35.47;3.90;;;;;;;;;;5067891;28;20029;-28
2023/02/06 00:21:13;;;;;;;37.78;3.80;;;;;;;;;;5064190;28;20486;-29
2023/02/06 00:23:41;;;;;;;43.40;4.50;;;;;;;;;;5066100;28;20032;-28
2023/02/06 00:26:08;;;;;;;23.20;3.25;;;;;;;;;;5055008;28;20407;-28
2023/02/06 00:28:35;;;;;;;30.10;3.75;;;;;;;;;;5054841;28;20112;-29
2023/02/06 00:31:04;;;;;;;34.03;3.70;;;;;;;;;;5060787;28;20041;-31
2023/02/06 00:33:31;;;;;;;52.17;4.10;;;;;;;;;;5062726;28;20392;-29
2023/02/06 00:35:58;;;;;;;38.20;4.20;;;;;;;;;;5061200;28;20036;-28
2023/02/06 00:38:25;;;;;;;31.88;3.42;;;;;;;;;;5059230;28;20032;-28
2023/02/06 00:40:52;;;;;;;48.30;4.75;;;;;;;;;;5059269;28;20031;-29
2023/02/06 00:43:19;;;;;;;51.17;5.13;;;;;;;;;;5053449;28;20029;-28
2023/02/06 00:45:51;;;;;;;60.55;5.15;;;;;;;;;;5053791;28;20040;-28
2023/02/06 00:48:17;;;;;;;33.63;3.70;;;;;;;;;;5064292;28;20031;-28
2023/02/06 00:50:44;;;;;;;34.58;3.35;;;;;;;;;;5059750;28;20024;-28
2023/02/06 00:53:11;;;;;;;36.00;3.47;;;;;;;;;;5052365;28;20067;-29
2023/02/06 00:55:38;;;;;;;31.50;3.20;;;;;;;;;;5034044;28;20065;-28
2023/02/06 00:58:13;;;;;;;29.60;3.28;;;;;;;;;;5057446;28;20040;-30
2023/02/06 01:00:41;;;;;;;25.60;2.78;;;;;;;;;;5061089;28;20052;-28
2023/02/06 01:03:08;;;;;;;29.08;2.92;;;;;;;;;;5058687;28;20453;-28
2023/02/06 01:05:35;;;;;;;33.97;3.35;;;;;;;;;;5058826;28;20040;-31
2023/02/06 01:08:02;;;;;;;29.38;3.00;;;;;;;;;;5058676;28;20572;-28
2023/02/06 01:10:29;;;;;;;19.65;2.22;;;;;;;;;;5058994;28;20474;-28
2023/02/06 01:12:57;;;;;;;20.17;1.95;;;;;;;;;;5061022;28;20029;-30
2023/02/06 01:15:24;;;;;;;15.85;2.05;;;;;;;;;;5053224;28;20020;-29
2023/02/06 01:17:52;;;;;;;18.67;3.53;;;;;;;;;;5056715;28;20487;-29
2023/02/06 01:20:20;;;;;;;18.70;4.30;;;;;;;;;;5059197;28;20036;-29
2023/02/06 01:22:47;;;;;;;19.33;3.58;;;;;;;;;;5059299;28;20036;-29
2023/02/06 01:25:14;;;;;;;16.77;2.53;;;;;;;;;;5067516;28;20136;-28
2023/02/06 01:27:41;;;;;;;16.48;2.60;;;;;;;;;;5059080;28;20123;-29
2023/02/06 01:30:08;;;;;;;15.18;1.83;;;;;;;;;;5051709;28;20071;-29
2023/02/06 01:32:38;;;;;;;21.90;2.40;;;;;;;;;;5053924;28;20250;-29
2023/02/06 01:35:06;;;;;;;24.58;2.70;;;;;;;;;;5050027;28;20801;-29
2023/02/06 01:37:33;;;;;;;27.83;2.85;;;;;;;;;;5070422;28;20359;-29
2023/02/06 01:40:00;;;;;;;16.13;2.17;;;;;;;;;;5071758;28;20498;-29
2023/02/06 01:42:27;;;;;;;18.05;2.17;;;;;;;;;;5071556;28;20104;-30
2023/02/06 01:45:12;;;;;;;19.48;2.17;;;;;;;;;;5071080;28;20028;-28
2023/02/06 01:47:39;;;;;;;14.05;1.33;;;;;;;;;;5071493;28;20029;-29
2023/02/06 01:50:06;;;;;;;21.50;2.67;;;;;;;;;;5065903;28;20025;-29
2023/02/06 01:52:33;;;;;;;29.02;3.00;;;;;;;;;;5051361;28;20033;-29
2023/02/06 01:55:02;;;;;;;23.83;2.42;;;;;;;;;;5050942;28;20028;-28
2023/02/06 01:57:30;;;;;;;33.80;2.72;;;;;;;;;;5051385;28;20035;-29
2023/02/06 01:59:59;;;;;;;23.50;2.58;;;;;;;;;;5051373;28;20487;-28
2023/02/06 02:02:27;;;;;;;19.33;2.85;;;;;;;;;;5044635;28;20112;-30
2023/02/06 02:04:56;;;;;;;21.90;1.73;;;;;;;;;;5053295;28;20032;-29
2023/02/06 02:07:33;;;;;;;20.05;2.28;;;;;;;;;;5059608;28;20027;-29
2023/02/06 02:10:00;;;;;;;16.90;2.30;;;;;;;;;;5057266;28;20466;-33
2023/02/06 02:12:27;;;;;;;26.60;2.63;;;;;;;;;;5055733;28;20051;-29
2023/02/06 02:14:54;;;;;;;13.70;2.17;;;;;;;;;;5055122;28;20581;-31
2023/02/06 02:17:42;;;;;;;16.65;1.88;;;;;;;;;;5053645;28;20060;-29
2023/02/06 02:20:21;;;;;;;17.58;2.22;;;;;;;;;;5055281;28;20028;-29
2023/02/06 02:22:54;;;;;;;21.05;2.22;;;;;;;;;;5054687;28;20487;-30
2023/02/06 02:25:21;;;;;;;19.45;2.65;;;;;;;;;;5051280;28;20501;-29
2023/02/06 02:27:48;;;;;;;12.50;2.15;;;;;;;;;;5055301;28;20036;-30
2023/02/06 02:30:31;;;;;;;21.60;2.72;;;;;;;;;;5060636;28;20040;-30
2023/02/06 02:33:16;;;;;;;18.58;2.85;;;;;;;;;;5059112;28;20024;-31
2023/02/06 02:35:51;;;;;;;16.13;2.28;;;;;;;;;;5049448;28;20128;-29
2023/02/06 02:38:36;;;;;;;14.75;2.00;;;;;;;;;;5058279;28;20032;-30
2023/02/06 02:41:03;;;;;;;18.67;1.92;;;;;;;;;;5058388;28;20767;-31
2023/02/06 02:43:38;;;;;;;10.45;2.25;;;;;;;;;;5060665;28;20040;-29
2023/02/06 02:46:19;;;;;;;13.70;1.98;;;;;;;;;;5055007;28;20033;-30
2023/02/06 02:48:47;;;;;;;15.65;2.05;;;;;;;;;;5060558;28;20036;-30
2023/02/06 02:51:14;;;;;;;16.63;2.25;;;;;;;;;;5052861;28;20056;-30
2023/02/06 02:53:41;;;;;;;13.70;1.85;;;;;;;;;;5052912;28;20068;-29
2023/02/06 02:56:19;;;;;;;20.83;2.05;;;;;;;;;;5067407;22;20053;-29
2023/02/06 02:58:47;;;;;;;27.52;3.03;;;;;;;;;;5057878;28;20433;-29
2023/02/06 03:01:19;;;;;;;20.73;3.10;;;;;;;;;;5058536;28;20032;-31
2023/02/06 03:03:46;;;;;;;19.57;2.73;;;;;;;;;;5058555;28;20028;-31
2023/02/06 03:06:31;;;;;;;17.02;2.92;;;;;;;;;;5058388;28;20041;-30
2023/02/06 03:09:16;;;;;;;16.33;2.55;;;;;;;;;;5058998;28;20428;-30
2023/02/06 03:11:56;;;;;;;25.88;3.13;;;;;;;;;;5059630;28;20056;-30
2023/02/06 03:14:33;;;;;;;20.15;3.38;;;;;;;;;;5057065;28;20033;-30
2023/02/06 03:17:05;;;;;;;20.38;3.25;;;;;;;;;;5049554;28;20116;-31
2023/02/06 03:19:45;;;;;;;18.42;2.92;;;;;;;;;;5061145;28;20147;-31
2023/02/06 03:22:14;;;;;;;20.73;2.63;;;;;;;;;;5066383;28;20025;-31
2023/02/06 03:24:41;;;;;;;13.90;2.63;;;;;;;;;;5067446;28;20043;-31
2023/02/06 03:27:13;;;;;;;18.65;2.30;;;;;;;;;;5067223;28;20016;-30
2023/02/06 03:29:41;;;;;;;17.88;3.30;;;;;;;;;;5064029;28;20071;-30
2023/02/06 03:32:11;;;;;;;22.95;3.15;;;;;;;;;;5063027;28;20021;-30
2023/02/06 03:34:44;;;;;;;17.50;2.90;;;;;;;;;;5066757;28;20020;-31
2023/02/06 03:37:11;;;;;;;9.68;2.03;;;;;;;;;;5068309;28;20029;-30
2023/02/06 03:39:39;;;;;;;23.27;2.80;;;;;;;;;;5057138;28;20060;-29
2023/02/06 03:42:06;;;;;;;14.43;2.00;;;;;;;;;;5056967;28;20044;-28
2023/02/06 03:44:35;;;;;;;6.38;1.65;;;;;;;;;;5057954;28;20087;-28
2023/02/06 03:47:03;;;;;;;17.90;2.10;;;;;;;;;;5055738;28;20087;-28
2023/02/06 03:49:31;;;;;;;6.70;1.52;;;;;;;;;;5065239;28;20033;-28
2023/02/06 03:51:58;;;;;;;11.18;1.60;;;;;;;;;;5070000;28;20037;-30
2023/02/06 03:54:26;;;;;;;15.18;1.80;;;;;;;;;;5069674;28;20060;-29
2023/02/06 03:56:54;;;;;;;18.40;2.20;;;;;;;;;;5053300;28;20056;-28
2023/02/06 03:59:21;;;;;;;10.65;1.98;;;;;;;;;;5061752;28;20033;-29
2023/02/06 04:01:50;;;;;;;12.27;2.38;;;;;;;;;;5073453;28;20037;-28
2023/02/06 04:04:27;;;;;;;16.15;2.45;;;;;;;;;;5073363;28;20036;-28
2023/02/06 04:07:01;;;;;;;18.58;2.70;;;;;;;;;;5067570;28;20052;-29
2023/02/06 04:09:28;;;;;;;16.95;2.38;;;;;;;;;;5071424;28;20482;-28
2023/02/06 04:11:55;;;;;;;19.30;2.00;;;;;;;;;;5073055;28;20107;-29
2023/02/06 04:14:22;;;;;;;12.27;1.92;;;;;;;;;;5073081;28;20096;-28
2023/02/06 04:16:49;;;;;;;13.35;2.10;;;;;;;;;;5072579;28;20033;-28
2023/02/06 04:19:17;;;;;;;14.88;2.15;;;;;;;;;;5066350;28;20045;-28
2023/02/06 04:21:44;;;;;;;5.80;1.52;;;;;;;;;;5067509;28;20029;-28
2023/02/06 04:24:11;;;;;;;8.70;1.80;;;;;;;;;;5073002;28;20024;-28
2023/02/06 04:26:38;;;;;;;7.43;1.38;;;;;;;;;;5053977;28;20040;-28
2023/02/06 04:29:05;;;;;;;14.82;2.28;;;;;;;;;;5068224;28;20025;-28
2023/02/06 04:31:32;;;;;;;14.23;2.10;;;;;;;;;;5072874;28;20108;-28
2023/02/06 04:33:59;;;;;;;13.50;2.60;;;;;;;;;;5060696;28;20048;-28
2023/02/06 04:36:26;;;;;;;17.85;3.40;;;;;;;;;;5052555;28;20037;-28
2023/02/06 04:38:53;;;;;;;15.15;3.17;;;;;;;;;;5052745;28;20074;-28
2023/02/06 04:41:20;;;;;;;13.32;3.28;;;;;;;;;;5052188;28;20021;-28
2023/02/06 04:43:47;;;;;;;23.10;4.43;;;;;;;;;;5052709;28;20029;-28
2023/02/06 04:46:14;;;;;;;26.20;3.80;;;;;;;;;;5052530;28;20037;-28
2023/02/06 04:48:40;;;;;;;21.17;3.78;;;;;;;;;;5071609;28;20073;-27
2023/02/06 04:51:08;;;;;;;20.08;3.88;;;;;;;;;;5072633;28;20037;-27
2023/02/06 04:53:34;;;;;;;25.52;4.55;;;;;;;;;;5072475;28;20058;-27
2023/02/06 04:56:02;;;;;;;23.45;4.25;;;;;;;;;;5072229;28;20481;-27
2023/02/06 04:58:29;;;;;;;20.15;4.03;;;;;;;;;;5072400;28;20635;-28
2023/02/06 05:00:56;;;;;;;21.52;4.38;;;;;;;;;;5065799;28;20479;-27
2023/02/06 05:03:24;;;;;;;18.35;3.33;;;;;;;;;;5052008;28;20024;-28
2023/02/06 05:05:54;;;;;;;21.25;3.90;;;;;;;;;;5063141;28;20107;-27
2023/02/06 05:08:20;;;;;;;14.38;3.05;;;;;;;;;;5072260;28;20028;-27
2023/02/06 05:10:48;;;;;;;17.35;3.00;;;;;;;;;;5072150;28;20126;-27
2023/02/06 05:13:14;;;;;;;15.60;2.05;;;;;;;;;;5072199;28;20107;-28
2023/02/06 05:15:41;;;;;;;12.25;2.22;;;;;;;;;;5072003;28;20055;-27
2023/02/06 05:18:08;;;;;;;15.73;2.70;;;;;;;;;;5071963;28;20371;-27
2023/02/06 05:20:35;;;;;;;9.40;2.22;;;;;;;;;;5071978;28;20534;-27
2023/02/06 05:23:02;;;;;;;11.50;2.00;;;;;;;;;;5071969;28;20032;-27
2023/02/06 05:25:30;;;;;;;9.40;2.20;;;;;;;;;;5071811;28;20041;-27
2023/02/06 05:27:57;;;;;;;9.55;2.30;;;;;;;;;;5071807;28;20040;-27
2023/02/06 05:30:24;;;;;;;13.25;2.35;;;;;;;;;;5071833;28;20017;-27
2023/02/06 05:32:51;;;;;;;13.07;2.13;;;;;;;;;;5071753;28;20024;-27
2023/02/06 05:35:18;;;;;;;10.45;1.98;;;;;;;;;;5056631;28;20024;-28
2023/02/06 05:37:45;;;;;;;13.88;2.53;;;;;;;;;;5051737;28;20039;-28
2023/02/06 05:40:12;;;;;;;23.48;2.55;;;;;;;;;;5051733;28;20514;-28
2023/02/06 05:42:39;;;;;;;13.32;2.17;;;;;;;;;;5051558;28;20056;-28
2023/02/06 05:45:07;;;;;;;12.70;2.55;;;;;;;;;;5051285;28;20090;-28
2023/02/06 05:47:34;;;;;;;17.00;1.98;;;;;;;;;;5051488;28;20025;-28
2023/02/06 05:50:01;;;;;;;8.27;2.08;;;;;;;;;;5051383;28;20028;-28
2023/02/06 05:52:28;;;;;;;11.27;1.67;;;;;;;;;;5050657;28;20036;-28
2023/02/06 05:54:55;;;;;;;18.70;1.95;;;;;;;;;;5051159;28;20399;-28
2023/02/06 05:57:22;;;;;;;9.32;1.48;;;;;;;;;;5051047;28;20466;-28
2023/02/06 05:59:49;;;;;;;7.63;1.33;;;;;;;;;;5051338;28;20083;-28
2023/02/06 06:02:16;;;;;;;9.80;1.75;;;;;;;;;;5049226;28;20039;-28
2023/02/06 06:04:42;;;;;;;8.68;1.80;;;;;;;;;;5051222;28;20082;-28
2023/02/06 06:07:09;;;;;;;7.97;1.30;;;;;;;;;;5051098;28;20039;-28
2023/02/06 06:09:36;;;;;;;8.32;1.80;;;;;;;;;;5051276;28;20029;-28
2023/02/06 06:12:03;;;;;;;8.07;1.20;;;;;;;;;;5051131;28;20018;-28
2023/02/06 06:14:30;;;;;;;8.50;1.45;;;;;;;;;;5051126;28;20437;-28
2023/02/06 06:16:57;;;;;;;12.27;1.65;;;;;;;;;;5051180;28;20109;-28
2023/02/06 06:19:24;;;;;;;10.10;1.60;;;;;;;;;;5051346;28;20139;-28
2023/02/06 06:21:51;;;;;;;9.18;1.58;;;;;;;;;;5049640;28;20392;-28
2023/02/06 06:24:18;;;;;;;8.63;1.63;;;;;;;;;;5058890;28;20040;-27
2023/02/06 06:26:45;;;;;;;8.73;1.58;;;;;;;;;;5050765;28;20522;-27
2023/02/06 06:29:12;;;;;;;4.45;1.40;;;;;;;;;;5066069;28;20074;-28
2023/02/06 06:31:39;;;;;;;9.40;1.95;;;;;;;;;;5070898;28;20050;-28
2023/02/06 06:34:06;;;;;;;13.65;1.88;;;;;;;;;;5070858;28;20056;-28
2023/02/06 06:36:33;;;;;;;12.40;1.98;;;;;;;;;;5070786;28;20494;-28
2023/02/06 06:39:00;;;;;;;8.43;1.60;;;;;;;;;;5060664;28;20037;-27
2023/02/06 06:41:27;;;;;;;9.10;1.77;;;;;;;;;;5054407;28;20064;-27
2023/02/06 06:43:58;;;;;;;7.35;2.17;;;;;;;;;;5070880;28;20063;-27
2023/02/06 06:46:25;;;;;;;8.82;1.95;;;;;;;;;;5070556;28;20029;-27
2023/02/06 06:48:52;;;;;;;7.10;2.15;;;;;;;;;;5070799;28;20047;-27
2023/02/06 06:51:19;;;;;;;11.23;2.60;;;;;;;;;;5070522;28;20036;-27
2023/02/06 06:53:46;;;;;;;6.18;1.90;;;;;;;;;;5070838;28;20024;-27
2023/02/06 06:56:14;;;;;;;8.75;2.20;;;;;;;;;;5070320;28;20045;-27
2023/02/06 06:58:41;;;;;;;5.60;1.75;;;;;;;;;;5070618;28;20036;-27
2023/02/06 07:01:09;;;;;;;9.25;2.22;;;;;;;;;;5070681;28;20549;-27
2023/02/06 07:03:36;;;;;;;7.43;1.45;;;;;;;;;;5069829;28;20036;-27
2023/02/06 07:06:04;;;;;;;7.22;1.50;;;;;;;;;;5074482;28;20482;-27
2023/02/06 07:08:31;;;;;;;4.18;1.02;;;;;;;;;;5074627;28;20086;-27
2023/02/06 07:10:58;;;;;;;7.95;1.50;;;;;;;;;;5069936;28;20090;-27
2023/02/06 07:13:25;;;;;;;9.00;1.65;;;;;;;;;;5054339;28;20514;-27
2023/02/06 07:15:52;;;;;;;7.68;1.63;;;;;;;;;;5054337;28;20426;-27
2023/02/06 07:18:19;;;;;;;6.30;1.10;;;;;;;;;;5054458;28;20028;-27
2023/02/06 07:20:46;;;;;;;11.02;1.38;;;;;;;;;;5054390;28;20055;-27
2023/02/06 07:23:13;;;;;;;5.40;1.33;;;;;;;;;;5054359;28;20028;-27
2023/02/06 07:25:40;;;;;;;9.20;1.80;;;;;;;;;;5054128;28;20037;-27
2023/02/06 07:28:07;;;;;;;8.57;1.20;;;;;;;;;;5054142;28;20036;-27
2023/02/06 07:30:34;;;;;;;37.97;4.22;;;;;;;;;;5054129;28;20033;-27
2023/02/06 07:33:01;;;;;;;44.65;3.55;;;;;;;;;;5054119;28;20055;-28
2023/02/06 07:35:28;;;;;;;11.52;1.88;;;;;;;;;;5053882;28;20035;-27
2023/02/06 07:37:55;;;;;;;11.60;1.67;;;;;;;;;;5054070;28;20111;-27
2023/02/06 07:40:23;;;;;;;9.18;2.20;;;;;;;;;;5053988;28;20025;-27
2023/02/06 07:42:49;;;;;;;7.93;1.67;;;;;;;;;;5053953;28;20029;-27
2023/02/06 07:45:17;;;;;;;8.68;1.77;;;;;;;;;;5053710;28;20037;-27
2023/02/06 07:47:44;;;;;;;7.43;1.60;;;;;;;;;;5053859;28;20025;-27
2023/02/06 07:50:11;;;;;;;4.13;1.45;;;;;;;;;;5053798;28;20112;-27
2023/02/06 07:52:38;;;;;;;5.32;1.45;;;;;;;;;;5053790;28;20025;-27
2023/02/06 07:55:05;;;;;;;5.90;1.33;;;;;;;;;;5053666;28;20040;-27
2023/02/06 07:57:32;;;;;;;8.75;1.40;;;;;;;;;;5053450;28;20057;-27
2023/02/06 07:59:59;;;;;;;6.28;1.55;;;;;;;;;;5053707;28;20086;-27
2023/02/06 08:02:26;;;;;;;7.28;1.73;;;;;;;;;;5053682;28;20873;-27
2023/02/06 08:04:53;;;;;;;6.05;1.50;;;;;;;;;;5053458;28;20021;-27
2023/02/06 08:07:20;;;;;;;9.82;1.50;;;;;;;;;;5053522;28;20044;-27
2023/02/06 08:09:47;;;;;;;7.15;1.23;;;;;;;;;;5053416;28;20052;-27
2023/02/06 08:12:14;;;;;;;4.18;1.50;;;;;;;;;;5053351;28;20028;-27
2023/02/06 08:14:44;;;;;;;8.63;1.50;;;;;;;;;;5053182;28;20032;-27
2023/02/06 08:17:14;;;;;;;8.02;1.38;;;;;;;;;;5052494;28;20063;-27
2023/02/06 08:19:41;;;;;;;7.50;1.42;;;;;;;;;;5053277;28;20036;-27
2023/02/06 08:22:08;;;;;;;4.57;1.38;;;;;;;;;;5053279;28;20064;-27
2023/02/06 08:24:35;;;;;;;3.72;1.27;;;;;;;;;;5053106;28;20482;-27
2023/02/06 08:27:02;;;;;;;8.73;1.48;;;;;;;;;;5053089;28;20869;-27
2023/02/06 08:29:29;;;;;;;5.00;1.40;;;;;;;;;;5053054;28;20032;-27
2023/02/06 08:31:57;;;;;;;4.10;1.35;;;;;;;;;;5053114;28;20032;-27
2023/02/06 08:34:23;;;;;;;11.82;1.55;;;;;;;;;;5052959;28;20063;-27
2023/02/06 08:36:50;;;;;;;69.57;4.63;;;;;;;;;;5052949;28;20033;-27
2023/02/06 08:39:18;;;;;;;23.02;2.55;;;;;;;;;;5052998;28;20094;-27
2023/02/06 08:41:45;;;;;;;19.38;2.20;;;;;;;;;;5052872;28;20039;-28
2023/02/06 08:44:14;;;;;;;35.28;3.30;;;;;;;;;;5052809;28;20036;-28
2023/02/06 08:46:42;;;;;;;19.02;2.10;;;;;;;;;;5052815;28;20372;-28
2023/02/06 08:49:14;;;;;;;24.58;3.38;;;;;;;;;;5052772;28;20499;-27
2023/02/06 08:51:41;;;;;;;23.95;3.45;;;;;;;;;;5052708;28;20074;-27
2023/02/06 08:54:09;;;;;;;22.02;2.92;;;;;;;;;;5052658;28;20040;-27
2023/02/06 08:56:37;;;;;;;16.92;2.72;;;;;;;;;;5052291;28;20502;-28
2023/02/06 08:59:04;;;;;;;19.75;2.58;;;;;;;;;;5052605;28;20025;-28
2023/02/06 09:01:32;;;;;;;18.60;2.60;;;;;;;;;;5052392;28;20796;-27
2023/02/06 09:04:01;;;;;;;15.25;2.00;;;;;;;;;;5052319;28;20597;-27
2023/02/06 09:06:28;;;;;;;34.13;3.35;;;;;;;;;;5052059;28;20681;-27
2023/02/06 09:08:56;;;;;;;23.58;3.03;;;;;;;;;;5050927;28;20051;-27
2023/02/06 09:11:24;;;;;;;26.08;2.85;;;;;;;;;;5052286;28;20052;-27
2023/02/06 09:13:51;;;;;;;27.13;3.60;;;;;;;;;;5052301;28;20100;-27
2023/02/06 09:16:19;;;;;;;24.33;3.25;;;;;;;;;;5052010;28;20028;-27
2023/02/06 09:18:46;;;;;;;28.50;2.80;;;;;;;;;;5052250;28;20055;-27
2023/02/06 09:21:15;;;;;;;39.00;4.90;;;;;;;;;;5052148;28;20029;-27
2023/02/06 09:23:43;;;;;;;55.17;5.38;;;;;;;;;;5051969;28;20025;-27
2023/02/06 09:26:14;;;;;;;30.35;4.88;;;;;;;;;;5051770;28;20120;-27
2023/02/06 09:28:41;;;;;;;32.17;4.00;;;;;;;;;;5051954;28;20029;-27
2023/02/06 09:31:08;;;;;;;39.88;4.53;;;;;;;;;;5051796;28;20368;-27
2023/02/06 09:33:35;;;;;;;36.05;3.92;;;;;;;;;;5050427;28;20446;-27
2023/02/06 09:36:07;;;;;;;23.67;3.53;;;;;;;;;;5051705;28;20036;-27
2023/02/06 09:38:35;;;;;;;25.33;3.63;;;;;;;;;;5051717;28;20025;-27
2023/02/06 09:41:06;;;;;;;26.63;3.15;;;;;;;;;;5051746;28;20387;-27
2023/02/06 09:43:33;;;;;;;41.42;3.78;;;;;;;;;;5051717;28;20047;-27
2023/02/06 09:46:02;;;;;;;28.60;3.17;;;;;;;;;;5051468;28;20033;-27
2023/02/06 09:48:32;;;;;;;35.13;3.22;;;;;;;;;;5051567;28;20032;-27
2023/02/06 09:51:17;;;;;;;67.75;5.75;;;;;;;;;;5051473;28;20483;-27
2023/02/06 09:53:47;;;;;;;45.15;4.65;;;;;;;;;;5051338;28;20112;-27
2023/02/06 09:56:20;;;;;;;40.70;6.25;;;;;;;;;;5051203;28;20045;-27
2023/02/06 09:59:16;;;;;;;46.25;7.50;;;;;;;;;;5051363;28;20040;-28
2023/02/06 10:01:43;;;;;;;36.25;10.32;;;;;;;;;;5038632;28;20057;-28
2023/02/06 10:04:33;;;;;;;45.13;15.07;;;;;;;;;;5051239;28;20025;-28
2023/02/06 10:07:19;;;;;;;64.10;18.42;;;;;;;;;;5051119;28;20829;-28
2023/02/06 10:09:50;;;;;;;53.85;18.40;;;;;;;;;;5051288;28;20056;-28
2023/02/06 10:12:24;;;;;;;58.78;17.48;;;;;;;;;;5051066;28;20065;-28
2023/02/06 10:14:57;;;;;;;61.17;21.23;;;;;;;;;;5051009;28;20029;-28
2023/02/06 10:17:33;;;;;;;42.65;16.13;;;;;;;;;;5050998;28;20445;-28
2023/02/06 10:20:26;;;;;;;63.85;20.23;;;;;;;;;;5050953;28;20029;-28
2023/02/06 10:23:25;;;;;;;56.35;19.20;;;;;;;;;;5049992;28;20462;-28
2023/02/06 10:26:11;;;;;;;59.58;16.48;;;;;;;;;;5038896;28;20132;-29
2023/02/06 10:28:39;;;;;;;51.38;14.82;;;;;;;;;;5050833;28;20051;-28
2023/02/06 10:31:06;;;;;;;61.63;15.40;;;;;;;;;;5050880;28;20040;-28
2023/02/06 10:33:39;;;;;;;56.50;13.85;;;;;;;;;;5050821;28;20032;-28
2023/02/06 10:36:06;;;;;;;81.82;14.68;;;;;;;;;;5050828;28;20052;-28
2023/02/06 10:38:37;;;;;;;69.63;12.77;;;;;;;;;;5050348;28;20021;-28
2023/02/06 10:41:20;;;;;;;74.57;11.47;;;;;;;;;;5050849;28;20503;-28
2023/02/06 10:43:47;;;;;;;52.10;9.93;;;;;;;;;;5050912;28;20032;-28
2023/02/06 10:46:19;;;;;;;61.20;9.98;;;;;;;;;;5050774;28;20044;-28
2023/02/06 10:48:52;;;;;;;48.55;8.60;;;;;;;;;;5050731;28;20037;-28
2023/02/06 10:51:26;;;;;;;46.03;7.90;;;;;;;;;;5050736;28;20783;-28
2023/02/06 10:53:55;;;;;;;45.28;7.25;;;;;;;;;;5050836;28;20049;-29
2023/02/06 10:56:25;;;;;;;39.33;6.80;;;;;;;;;;5050393;28;20438;-28
2023/02/06 10:59:04;;;;;;;43.65;6.07;;;;;;;;;;5050510;28;20037;-28
2023/02/06 11:01:34;;;;;;;32.28;5.55;;;;;;;;;;5050681;28;20186;-33
2023/02/06 11:04:13;;;;;;;38.90;5.93;;;;;;;;;;5062612;28;20860;-28
2023/02/06 11:06:42;;;;;;;52.40;6.88;;;;;;;;;;5070378;28;20166;-28
2023/02/06 11:09:09;;;;;;;55.58;7.30;;;;;;;;;;5070565;28;20036;-28
2023/02/06 11:11:38;;;;;;;56.83;6.93;;;;;;;;;;5070463;28;20028;-28
2023/02/06 11:14:07;;;;;;;34.00;6.50;;;;;;;;;;5070528;28;20039;-28
2023/02/06 11:16:36;;;;;;;32.97;6.90;;;;;;;;;;5070347;28;20399;-28
2023/02/06 11:19:15;;;;;;;28.80;7.35;;;;;;;;;;5070335;28;20086;-28
2023/02/06 11:21:42;;;;;;;29.63;8.57;;;;;;;;;;5070310;28;20033;-28
2023/02/06 11:24:09;;;;;;;27.27;8.13;;;;;;;;;;5070241;28;20035;-28
2023/02/06 11:26:40;;;;;;;32.17;8.07;;;;;;;;;;5070272;28;20032;-28
2023/02/06 11:29:17;;;;;;;28.25;7.05;;;;;;;;;;5070354;28;20032;-28
2023/02/06 11:31:51;;;;;;;39.88;5.32;;;;;;;;;;5070384;28;20028;-30
2023/02/06 11:34:20;;;;;;;52.72;4.80;;;;;;;;;;5070246;28;20044;-28
2023/02/06 11:36:51;;;;;;;34.55;3.50;;;;;;;;;;5070305;28;20052;-28
2023/02/06 11:39:37;;;;;;;25.60;3.33;;;;;;;;;;5070182;28;20032;-28
2023/02/06 11:42:06;;;;;;;17.42;2.47;;;;;;;;;;5070302;28;20028;-28
2023/02/06 11:44:52;;;;;;;28.15;3.60;;;;;;;;;;5070237;28;20067;-28
2023/02/06 11:47:29;;;;;;;20.95;2.80;;;;;;;;;;5070093;28;20135;-28
2023/02/06 11:49:57;;;;;;;15.15;1.80;;;;;;;;;;5070088;28;20699;-28
2023/02/06 11:52:31;;;;;;;18.83;2.22;;;;;;;;;;5073276;28;20040;-28
2023/02/06 11:55:01;;;;;;;22.42;3.17;;;;;;;;;;5073730;28;20107;-28
2023/02/06 11:57:30;;;;;;;23.23;2.83;;;;;;;;;;5073436;28;20109;-28
2023/02/06 11:59:59;;;;;;;18.98;1.92;;;;;;;;;;5073596;28;20288;-28
2023/02/06 12:02:27;;;;;;;15.85;2.10;;;;;;;;;;5073498;28;20402;-28
2023/02/06 12:05:04;;;;;;;13.52;1.92;;;;;;;;;;5073355;28;20394;-28
2023/02/06 12:07:51;;;;;;;15.20;2.10;;;;;;;;;;5073465;28;20032;-28
2023/02/06 12:10:19;;;;;;;15.48;2.13;;;;;;;;;;5073355;28;20031;-28
2023/02/06 12:12:48;;;;;;;19.77;2.00;;;;;;;;;;5073483;28;20036;-28
2023/02/06 12:15:23;;;;;;;22.67;2.10;;;;;;;;;;5073308;28;20024;-28
2023/02/06 12:17:58;;;;;;;12.10;1.58;;;;;;;;;;5073306;28;20371;-28
2023/02/06 12:20:31;;;;;;;16.25;1.63;;;;;;;;;;5073409;28;20024;-28
2023/02/06 12:23:05;;;;;;;16.27;1.90;;;;;;;;;;5073126;28;20375;-28
2023/02/06 12:25:36;;;;;;;7.65;1.63;;;;;;;;;;5072994;28;20055;-28
2023/02/06 12:28:11;;;;;;;10.75;1.55;;;;;;;;;;5073141;28;20032;-28
2023/02/06 12:30:58;;;;;;;22.20;1.80;;;;;;;;;;5072947;28;20031;-28
2023/02/06 12:33:34;;;;;;;24.20;1.77;;;;;;;;;;5073062;28;20100;-28
2023/02/06 12:36:10;;;;;;;15.40;1.80;;;;;;;;;;5072821;28;20039;-28
2023/02/06 12:38:43;;;;;;;29.55;2.60;;;;;;;;;;5063099;28;20122;-28
2023/02/06 12:41:21;;;;;;;16.70;1.98;;;;;;;;;;5055640;28;20405;-28
2023/02/06 12:43:52;;;;;;;17.23;1.88;;;;;;;;;;5056155;28;20048;-28
2023/02/06 12:46:22;;;;;;;14.23;1.75;;;;;;;;;;5052588;28;20036;-28
2023/02/06 12:49:07;;;;;;;18.00;1.70;;;;;;;;;;5052686;28;20570;-28
2023/02/06 12:51:49;;;;;;;8.23;1.42;;;;;;;;;;5057756;28;20055;-28
2023/02/06 12:54:16;;;;;;;;;;;;;;;;;;5058155;28;20025;-28
2023/02/06 12:56:51;;;;;;;25.80;2.58;;;;;;;;;;5063359;28;19965;-29
2023/02/06 12:59:36;;;;;;;19.92;2.38;;;;;;;;;;5050602;28;20167;-31
2023/02/06 13:02:16;;;;;;;18.10;2.47;;;;;;;;;;5051740;28;20029;-29
2023/02/06 13:04:45;;;;;;;14.68;1.77;;;;;;;;;;5057754;28;20054;-29
2023/02/06 13:07:14;;;;;;;45.55;4.07;;;;;;;;;;5070490;28;20071;-29
2023/02/06 13:09:52;;;;;;;18.00;2.05;;;;;;;;;;5072041;28;20036;-29
2023/02/06 13:12:23;;;;;;;17.80;2.35;;;;;;;;;;5071179;28;20051;-29
2023/02/06 13:14:52;;;;;;;18.85;1.95;;;;;;;;;;5070435;28;20036;-29
2023/02/06 13:17:23;;;;;;;37.50;3.20;;;;;;;;;;5070705;28;20039;-29
2023/02/06 13:19:52;;;;;;;27.57;2.10;;;;;;;;;;5070452;28;20059;-28
2023/02/06 13:22:19;;;;;;;21.92;2.35;;;;;;;;;;5071842;28;20100;-29
2023/02/06 13:24:47;;;;;;;13.32;1.70;;;;;;;;;;5068604;28;20044;-28
2023/02/06 13:27:24;;;;;;;76.90;7.53;;;;;;;;;;5058810;28;20111;-29
2023/02/06 13:29:52;;;;;;;41.63;4.88;;;;;;;;;;5049537;28;20041;-31
2023/02/06 13:32:22;;;;;;;37.03;3.22;;;;;;;;;;5061603;28;20066;-32
2023/02/06 13:34:49;;;;;;;22.55;3.05;;;;;;;;;;5070248;28;20040;-29
2023/02/06 13:37:36;;;;;;;19.83;2.22;;;;;;;;;;5071533;28;20032;-29
2023/02/06 13:40:21;;;;;;;15.60;2.03;;;;;;;;;;5070195;28;20479;-33
2023/02/06 13:42:52;;;;;;;15.35;2.28;;;;;;;;;;5059730;28;20083;-29
2023/02/06 13:45:43;;;;;;;14.77;2.47;;;;;;;;;;5057645;28;20395;-29
2023/02/06 13:48:34;;;;;;;28.85;2.78;;;;;;;;;;5065185;28;20282;-33
2023/02/06 13:51:23;;;;;;;20.85;2.38;;;;;;;;;;5069650;28;20029;-32
2023/02/06 13:54:16;;;;;;;18.27;2.67;;;;;;;;;;5050170;28;20041;-31
2023/02/06 13:56:42;;;;;;;;;;;;;;;;;;5055935;28;20129;-29
2023/02/06 13:59:17;;;;;;;24.45;2.97;;;;;;;;;;5051353;28;20279;-33
2023/02/06 14:01:44;;;;;;;21.73;2.88;;;;;;;;;;5050014;28;20060;-29
2023/02/06 14:04:17;;;;;;;18.08;2.63;;;;;;;;;;5049423;28;20044;-28
2023/02/06 14:06:44;;;;;;;17.75;2.88;;;;;;;;;;5050372;28;20051;-29
2023/02/06 14:09:11;;;;;;;22.92;3.20;;;;;;;;;;5050462;28;20028;-30
2023/02/06 14:11:38;;;;;;;17.25;2.97;;;;;;;;;;5049131;28;20040;-31
2023/02/06 14:14:16;;;;;;;15.73;2.40;;;;;;;;;;5051847;28;20593;-38
2023/02/06 14:17:02;;;;;;;18.17;1.90;;;;;;;;;;5052397;28;20491;-30
2023/02/06 14:19:58;;;;;;;23.02;2.70;;;;;;;;;;5044229;28;20029;-28
2023/02/06 14:22:38;;;;;;;18.38;2.33;;;;;;;;;;5036808;28;20562;-30
2023/02/06 14:25:23;;;;;;;20.15;3.03;;;;;;;;;;5048228;28;20067;-29
2023/02/06 14:27:56;;;;;;;20.35;3.08;;;;;;;;;;5049053;28;20391;-28
2023/02/06 14:30:37;;;;;;;19.00;2.85;;;;;;;;;;5051364;28;20041;-30
2023/02/06 14:33:25;;;;;;;15.60;2.78;;;;;;;;;;5069972;28;20039;-28
2023/02/06 14:36:04;;;;;;;22.15;2.58;;;;;;;;;;5068863;28;20379;-30
2023/02/06 14:38:34;;;;;;;12.23;2.33;;;;;;;;;;5068640;28;20036;-30
2023/02/06 14:41:02;;;;;;;14.45;2.63;;;;;;;;;;5070236;28;20025;-30
2023/02/06 14:43:32;;;;;;;19.50;2.28;;;;;;;;;;5070401;28;20036;-30
2023/02/06 14:46:01;;;;;;;14.15;2.83;;;;;;;;;;5069139;28;20383;-29
2023/02/06 14:48:35;;;;;;;15.65;2.58;;;;;;;;;;5068996;28;20119;-29
2023/02/06 14:51:03;;;;;;;24.05;3.33;;;;;;;;;;5050901;28;20033;-30
2023/02/06 14:53:32;;;;;;;19.67;3.08;;;;;;;;;;5049816;28;20060;-31